Broadwell, Illinois
Current Conditions -  °F | °C
As of 5:52 PM on Wednesday 28 Jan 2015 (Local Time) from KSPI Reporting Station
Clear Clear  
Wind Chill: 30°   Ceiling: Unl
Heat Index: 40°   Visibility: 10mi
Dew Point: 31°   Wind: 22mph
Humidity: 70%   Direction: 160°SSE
Pressure: 29.94"   Gusts: 29mph
Location:  39.9935°N, 89.4758°W
Report Text: KSPI 282352Z 16019G25KT 10SM CLR 04/M01 A2994 RMK AO2 SLP142 T00441006 10061 20033 58029
Loading
Personal Weather Stations






























Interactive Weather Map New forecast layout! Learn more

10-Day Weather Forecast

Advertisements
Track Severe Weather on mobile